Time;durP1;ratioP1;P1;durP2;ratioP2;P2;SDS_P1;SDS_P2;PMS_P1;PMS_P2;Temp;Humidity;BMP_temperature;BMP_pressure;BME280_temperature;BME280_humidity;BME280_pressure;Samples;Min_cycle;Max_cycle;Signal;HPM_P1;HPM_P2
2022/09/24 00:01:26;;;;;;;11.98;8.30;;;9.00;99.90;;;;;;8259038;28;20061;-79
2022/09/24 00:05:26;;;;;;;10.43;7.63;;;9.00;99.90;;;;;;8256549;28;20037;-79
2022/09/24 00:09:27;;;;;;;11.52;8.32;;;9.00;99.90;;;;;;8256479;28;20057;-79
2022/09/24 00:13:28;;;;;;;11.80;8.52;;;9.00;99.90;;;;;;8258392;28;20409;-80
2022/09/24 00:17:29;;;;;;;16.60;7.90;;;9.00;99.90;;;;;;8258717;28;20062;-79
2022/09/24 00:21:34;;;;;;;13.52;7.88;;;9.20;99.90;;;;;;8257937;28;20061;-79
2022/09/24 00:34:16;;;;;;;11.43;8.18;;;9.10;99.90;;;;;;8275289;23;20061;-80
2022/09/24 00:38:16;;;;;;;10.93;8.13;;;9.10;99.90;;;;;;8228996;28;20086;-80
2022/09/24 00:42:21;;;;;;;11.88;8.50;;;9.00;99.90;;;;;;8230499;28;20026;-80
2022/09/24 00:46:39;;;;;;;13.45;8.80;;;8.90;99.90;;;;;;8201849;28;20026;-80
2022/09/24 00:50:40;;;;;;;11.35;8.43;;;8.90;99.90;;;;;;8215321;28;20410;-80
2022/09/24 00:54:42;;;;;;;11.77;8.38;;;8.80;99.90;;;;;;8211954;28;20030;-79
2022/09/24 00:58:48;;;;;;;11.57;7.97;;;8.80;99.90;;;;;;8208314;28;20407;-79
2022/09/24 01:02:53;;;;;;;11.05;8.23;;;8.90;99.90;;;;;;8217419;28;20529;-79
2022/09/24 01:06:55;;;;;;;9.57;7.32;;;8.90;99.90;;;;;;8216988;28;20031;-80
2022/09/24 01:11:17;;;;;;;9.48;7.78;;;8.90;99.90;;;;;;8229907;28;20541;-80
2022/09/24 01:15:28;;;;;;;17.73;8.73;;;8.90;99.90;;;;;;8237028;28;20581;-80
2022/09/24 01:20:07;;;;;;;10.95;8.73;;;8.80;99.90;;;;;;8229822;28;20638;-79
2022/09/24 01:24:24;;;;;;;12.27;8.93;;;8.80;99.90;;;;;;8223342;28;20033;-80
2022/09/24 01:28:49;;;;;;;13.60;8.27;;;8.90;99.90;;;;;;8230870;28;20398;-80
2022/09/24 01:33:03;;;;;;;9.80;7.80;;;9.00;99.90;;;;;;8231323;28;20078;-80
2022/09/24 01:37:03;;;;;;;14.70;9.38;;;9.00;99.90;;;;;;8217962;28;20064;-80
2022/09/24 01:41:06;;;;;;;15.15;8.30;;;8.90;99.90;;;;;;8220989;28;20034;-79
2022/09/24 01:45:09;;;;;;;14.80;9.30;;;9.00;99.90;;;;;;8230437;28;20078;-79
2022/09/24 01:49:10;;;;;;;13.63;8.65;;;9.00;99.90;;;;;;8231565;28;20513;-80
2022/09/24 01:53:22;;;;;;;11.70;8.45;;;9.00;99.90;;;;;;8232005;28;20031;-79
2022/09/24 01:57:37;;;;;;;15.07;8.40;;;9.00;99.90;;;;;;8228264;28;20034;-81
2022/09/24 02:01:48;;;;;;;13.65;7.78;;;9.00;99.90;;;;;;8228916;28;20042;-79
2022/09/24 02:06:07;;;;;;;13.30;8.65;;;9.00;99.90;;;;;;8225240;28;20016;-80
2022/09/24 02:10:19;;;;;;;16.05;8.70;;;9.10;99.90;;;;;;8223996;28;20035;-80
2022/09/24 02:14:19;;;;;;;11.77;8.38;;;9.10;99.90;;;;;;8228153;28;20037;-79
2022/09/24 02:18:26;;;;;;;14.18;9.32;;;9.10;99.90;;;;;;8223527;28;20496;-79
2022/09/24 02:22:29;;;;;;;12.90;8.13;;;9.20;99.90;;;;;;8229917;28;20027;-79
2022/09/24 02:26:29;;;;;;;16.13;9.68;;;9.20;99.90;;;;;;8229606;28;20050;-79
2022/09/24 02:30:36;;;;;;;12.93;9.60;;;9.20;99.90;;;;;;8226897;28;20031;-79
2022/09/24 02:34:43;;;;;;;16.13;9.52;;;9.20;99.90;;;;;;8227611;28;20019;-80
2022/09/24 02:38:45;;;;;;;15.70;9.52;;;9.30;99.90;;;;;;8226040;28;20023;-80
2022/09/24 02:42:46;;;;;;;15.13;8.82;;;9.40;99.90;;;;;;8228057;28;20019;-80
2022/09/24 02:46:47;;;;;;;12.73;8.30;;;9.40;99.90;;;;;;8222543;28;20015;-81
2022/09/24 02:50:48;;;;;;;13.05;8.07;;;9.40;99.90;;;;;;8221150;28;20027;-79
2022/09/24 02:54:51;;;;;;;12.15;8.07;;;9.40;99.90;;;;;;8222929;28;20023;-80
2022/09/24 02:58:52;;;;;;;11.32;8.38;;;9.30;99.90;;;;;;8221900;28;20023;-80
2022/09/24 03:02:52;;;;;;;13.45;8.82;;;9.30;99.90;;;;;;8228792;28;20025;-79
2022/09/24 03:06:53;;;;;;;12.25;9.48;;;9.20;99.90;;;;;;8221222;28;20090;-79
2022/09/24 03:10:54;;;;;;;15.43;9.63;;;9.40;99.90;;;;;;8227671;28;20044;-79
2022/09/24 03:14:55;;;;;;;11.63;8.55;;;9.40;99.90;;;;;;8215106;28;20038;-80
2022/09/24 03:18:55;;;;;;;11.52;8.35;;;9.40;99.90;;;;;;8225909;28;20114;-79
2022/09/24 03:22:56;;;;;;;15.07;7.22;;;9.60;99.90;;;;;;8226653;28;20026;-79
2022/09/24 03:26:57;;;;;;;12.30;7.95;;;9.70;99.90;;;;;;8226343;28;20027;-79
2022/09/24 03:31:00;;;;;;;9.27;7.00;;;9.80;99.90;;;;;;8217790;28;20030;-80
2022/09/24 03:35:01;;;;;;;12.80;7.32;;;9.90;99.90;;;;;;8229191;28;20030;-79
2022/09/24 03:39:02;;;;;;;11.30;7.60;;;9.90;99.90;;;;;;8227829;28;20014;-79
2022/09/24 03:43:02;;;;;;;10.35;8.00;;;9.90;99.90;;;;;;8218254;28;20027;-80
2022/09/24 03:47:03;;;;;;;10.18;7.07;;;9.80;99.90;;;;;;8226100;28;20591;-79
2022/09/24 03:51:11;;;;;;;10.07;7.38;;;9.80;99.90;;;;;;8219627;28;20402;-79
2022/09/24 03:55:12;;;;;;;12.48;7.47;;;9.90;99.90;;;;;;8222414;28;20105;-80
2022/09/24 03:59:12;;;;;;;9.50;6.88;;;9.90;99.90;;;;;;8217760;28;20035;-79
2022/09/24 04:03:13;;;;;;;12.68;7.88;;;9.90;99.90;;;;;;8219609;28;20120;-80
2022/09/24 04:07:13;;;;;;;10.77;8.20;;;9.80;99.90;;;;;;8226667;28;20053;-79
2022/09/24 04:11:14;;;;;;;10.13;8.15;;;9.80;99.90;;;;;;8216170;28;20058;-79
2022/09/24 04:15:16;;;;;;;12.48;8.10;;;9.70;99.90;;;;;;8217462;28;20483;-80
2022/09/24 04:19:17;;;;;;;12.10;8.70;;;9.60;99.90;;;;;;8214630;28;20046;-80
2022/09/24 04:23:18;;;;;;;11.23;8.30;;;9.60;99.90;;;;;;8222299;28;20022;-80
2022/09/24 04:27:20;;;;;;;13.75;8.85;;;9.60;99.90;;;;;;8223034;28;20023;-79
2022/09/24 04:31:21;;;;;;;11.10;8.38;;;9.80;99.90;;;;;;8225050;28;20046;-79
2022/09/24 04:35:22;;;;;;;12.43;9.23;;;9.80;99.90;;;;;;8215629;28;20031;-80
2022/09/24 04:39:26;;;;;;;12.73;8.50;;;9.80;99.90;;;;;;8210799;28;20394;-80
2022/09/24 04:43:26;;;;;;;10.52;7.32;;;9.80;99.90;;;;;;8211350;28;20023;-80
2022/09/24 04:47:27;;;;;;;11.30;7.95;;;10.20;99.90;;;;;;8211811;28;20506;-80
2022/09/24 04:51:27;;;;;;;11.50;7.88;;;10.30;99.90;;;;;;8216471;28;20069;-80
2022/09/24 04:55:28;;;;;;;11.38;7.45;;;10.10;99.90;;;;;;8210653;28;20512;-80
2022/09/24 04:59:28;;;;;;;11.05;8.13;;;9.90;99.90;;;;;;8219362;28;20107;-80
2022/09/24 05:03:29;;;;;;;12.95;8.50;;;9.80;99.90;;;;;;8223287;28;20550;-79
2022/09/24 05:07:29;;;;;;;10.50;7.97;;;9.70;99.90;;;;;;8219127;28;20027;-79
2022/09/24 05:11:30;;;;;;;12.75;9.15;;;9.70;99.90;;;;;;8218911;28;20534;-79
2022/09/24 05:15:31;;;;;;;9.40;7.47;;;9.80;99.90;;;;;;8204594;28;20084;-79
2022/09/24 05:19:32;;;;;;;9.82;7.55;;;9.80;99.90;;;;;;8215125;28;20031;-79
2022/09/24 05:23:32;;;;;;;14.48;7.57;;;9.90;99.90;;;;;;8215229;28;20102;-80
2022/09/24 05:27:34;;;;;;;10.30;7.50;;;9.90;99.90;;;;;;8212136;28;20234;-79
2022/09/24 05:31:35;;;;;;;13.13;7.63;;;9.80;99.90;;;;;;8208688;28;20034;-79
2022/09/24 05:35:36;;;;;;;16.00;9.80;;;9.90;99.90;;;;;;8214858;28;20022;-79
2022/09/24 05:39:36;;;;;;;14.02;9.98;;;10.00;99.90;;;;;;8216189;28;20042;-80
2022/09/24 05:43:37;;;;;;;13.18;8.65;;;10.10;99.90;;;;;;8222885;28;20054;-79
2022/09/24 05:47:37;;;;;;;11.10;8.23;;;10.30;99.90;;;;;;8215847;28;20130;-79
2022/09/24 05:51:38;;;;;;;10.30;7.85;;;10.20;99.90;;;;;;8229974;28;20027;-80
2022/09/24 05:55:38;;;;;;;10.95;8.32;;;10.20;99.90;;;;;;8226201;28;20030;-80
2022/09/24 05:59:39;;;;;;;11.55;8.63;;;10.30;99.90;;;;;;8229288;28;20039;-79
2022/09/24 06:03:39;;;;;;;10.52;8.32;;;10.60;99.90;;;;;;8225369;28;20046;-80
2022/09/24 06:07:40;;;;;;;10.60;8.85;;;10.50;99.90;;;;;;8223222;28;20023;-80
2022/09/24 06:11:41;;;;;;;13.45;9.55;;;10.60;99.90;;;;;;8217301;28;20154;-79
2022/09/24 06:15:42;;;;;;;13.40;10.05;;;10.70;99.90;;;;;;8219051;28;20027;-80
2022/09/24 06:19:43;;;;;;;15.15;9.85;;;10.80;99.90;;;;;;8224855;28;20046;-80
2022/09/24 06:23:46;;;;;;;13.65;9.75;;;11.00;99.90;;;;;;8225591;28;20546;-80
2022/09/24 06:27:59;;;;;;;13.77;11.15;;;11.10;99.90;;;;;;8227283;28;20027;-79
2022/09/24 06:32:00;;;;;;;13.20;10.45;;;11.20;99.90;;;;;;8212819;28;20050;-80
2022/09/24 06:36:03;;;;;;;11.48;8.88;;;11.40;99.90;;;;;;8209794;28;20037;-80
2022/09/24 06:40:04;;;;;;;10.93;8.75;;;11.70;99.90;;;;;;8215211;28;20026;-79
2022/09/24 06:44:04;;;;;;;9.80;7.78;;;11.70;99.90;;;;;;8219798;28;20113;-80
2022/09/24 06:48:05;;;;;;;12.40;8.70;;;11.70;99.90;;;;;;8222562;28;20023;-80
2022/09/24 06:52:06;;;;;;;11.48;8.60;;;11.70;99.90;;;;;;8223787;28;20019;-80
2022/09/24 06:56:06;;;;;;;11.60;8.85;;;11.90;99.90;;;;;;8225756;28;20050;-80
2022/09/24 07:00:08;;;;;;;11.82;9.32;;;12.00;99.90;;;;;;8228228;28;20038;-80
2022/09/24 07:04:08;;;;;;;13.85;9.88;;;12.20;99.90;;;;;;8228041;28;20029;-80
2022/09/24 07:08:09;;;;;;;14.75;9.95;;;12.40;99.90;;;;;;8229672;28;20026;-80
2022/09/24 07:12:10;;;;;;;14.40;9.98;;;12.50;99.90;;;;;;8225440;28;20429;-80
2022/09/24 07:16:10;;;;;;;14.82;10.70;;;12.60;99.90;;;;;;8222946;28;20030;-81
2022/09/24 07:20:11;;;;;;;13.52;10.48;;;12.50;99.90;;;;;;8228484;28;20173;-81
2022/09/24 07:24:11;;;;;;;11.90;9.63;;;12.60;99.90;;;;;;8221441;28;20512;-81
2022/09/24 07:28:14;;;;;;;15.82;10.77;;;12.80;99.90;;;;;;8219013;28;20569;-81
2022/09/24 07:32:16;;;;;;;18.00;11.77;;;12.70;99.90;;;;;;8217096;28;20051;-81
2022/09/24 07:36:17;;;;;;;15.82;11.00;;;12.80;99.90;;;;;;8216338;28;20026;-81
2022/09/24 07:40:18;;;;;;;15.82;11.27;;;12.70;99.90;;;;;;8227252;28;20115;-81
2022/09/24 07:44:21;;;;;;;16.17;11.38;;;12.90;99.90;;;;;;8226743;28;20038;-81
2022/09/24 07:48:22;;;;;;;14.15;10.93;;;12.90;99.90;;;;;;8228299;28;20113;-81
2022/09/24 07:52:23;;;;;;;15.82;11.65;;;13.00;99.90;;;;;;8225826;28;20053;-81
2022/09/24 07:56:24;;;;;;;14.80;11.63;;;13.00;99.90;;;;;;8225983;28;20081;-81
2022/09/24 08:00:25;;;;;;;14.93;11.95;;;13.10;99.90;;;;;;8228133;28;20050;-80
2022/09/24 08:04:25;;;;;;;13.77;10.57;;;13.20;99.90;;;;;;8228243;28;20054;-81
2022/09/24 08:08:26;;;;;;;14.23;11.02;;;13.30;99.90;;;;;;8228066;28;20027;-80
2022/09/24 08:12:27;;;;;;;13.63;10.07;;;13.40;99.90;;;;;;8225437;28;20516;-81
2022/09/24 08:16:27;;;;;;;12.98;10.20;;;13.30;99.90;;;;;;8226628;28;20030;-80
2022/09/24 08:20:29;;;;;;;13.73;10.40;;;13.40;99.90;;;;;;8227577;28;20048;-81
2022/09/24 08:24:30;;;;;;;16.58;12.00;;;13.30;99.90;;;;;;8226545;28;20106;-80
2022/09/24 08:28:31;;;;;;;15.13;11.27;;;13.50;99.90;;;;;;8226331;28;20022;-80
2022/09/24 08:32:32;;;;;;;16.20;10.68;;;13.50;99.90;;;;;;8226482;28;20433;-81
2022/09/24 08:36:32;;;;;;;13.07;10.00;;;13.50;99.90;;;;;;8227690;28;20035;-81
2022/09/24 08:40:38;;;;;;;12.35;9.68;;;13.70;99.90;;;;;;8226136;28;20182;-81
2022/09/24 08:49:04;;;;;;;13.75;10.70;;;13.80;99.90;;;;;;8228092;28;20026;-81
2022/09/24 08:53:15;;;;;;;15.50;10.85;;;14.20;99.90;;;;;;8220003;28;20029;-81
2022/09/24 08:57:17;;;;;;;12.85;9.45;;;14.30;99.90;;;;;;8226047;28;20074;-82
2022/09/24 09:01:40;;;;;;;11.05;9.18;;;14.50;99.90;;;;;;8225715;28;20031;-82
2022/09/24 09:06:02;;;;;;;10.55;8.57;;;14.60;99.90;;;;;;8225735;28;20098;-81
2022/09/24 09:10:10;;;;;;;12.02;9.30;;;15.00;99.90;;;;;;8223624;28;20023;-82
2022/09/24 09:14:19;;;;;;;13.75;7.78;;;15.10;99.90;;;;;;8225583;28;20027;-81
2022/09/24 09:18:40;;;;;;;10.93;8.65;;;15.40;99.90;;;;;;8227187;28;20057;-81
2022/09/24 09:22:47;;;;;;;8.57;6.80;;;15.60;99.90;;;;;;8226897;28;20027;-82
2022/09/24 09:26:53;;;;;;;8.90;6.28;;;15.70;99.90;;;;;;8231667;28;20051;-81
2022/09/24 09:31:07;;;;;;;6.00;5.10;;;15.50;99.90;;;;;;8231475;28;20027;-80
2022/09/24 09:35:34;;;;;;;9.68;6.18;;;15.60;99.90;;;;;;8225306;28;20078;-80
2022/09/24 09:39:49;;;;;;;8.13;5.70;;;15.60;99.90;;;;;;8231605;28;20364;-81
2022/09/24 09:43:59;;;;;;;6.95;5.13;;;15.50;99.90;;;;;;8231376;28;20033;-80
2022/09/24 09:48:02;;;;;;;6.47;5.13;;;15.40;99.90;;;;;;8232493;28;20473;-80
2022/09/24 09:52:17;;;;;;;7.70;5.22;;;15.30;99.90;;;;;;8226090;28;20102;-80
2022/09/24 09:56:23;;;;;;;6.13;5.00;;;15.40;99.90;;;;;;8232522;28;20109;-80
2022/09/24 10:00:33;;;;;;;6.85;5.55;;;15.40;99.90;;;;;;8231154;28;20030;-80
2022/09/24 10:04:33;;;;;;;6.70;6.00;;;15.30;99.90;;;;;;8229987;28;20030;-80
2022/09/24 10:08:34;;;;;;;6.18;5.40;;;15.20;99.90;;;;;;8230880;28;20041;-80
2022/09/24 10:12:38;;;;;;;7.28;5.38;;;15.40;99.90;;;;;;8235774;28;20498;-80
2022/09/24 10:16:41;;;;;;;6.53;5.13;;;15.80;99.90;;;;;;8230785;28;20486;-80
2022/09/24 10:20:47;;;;;;;5.75;4.70;;;16.70;99.90;;;;;;8230916;28;20033;-80
2022/09/24 10:24:48;;;;;;;6.97;4.85;;;17.30;99.90;;;;;;8230967;28;20023;-80
2022/09/24 10:33:09;;;;;;;5.93;4.95;;;17.20;99.90;;;;;;8226088;28;20050;-81
2022/09/24 10:37:17;;;;;;;6.25;5.05;;;17.30;99.90;;;;;;8229334;28;20035;-80
2022/09/24 10:41:25;;;;;;;4.82;4.30;;;17.10;99.90;;;;;;8229904;28;20134;-80
2022/09/24 10:45:59;;;;;;;6.28;5.15;;;16.80;99.90;;;;;;8229719;28;20018;-80
2022/09/24 10:50:26;;;;;;;8.20;6.28;;;16.80;99.90;;;;;;8226613;28;20027;-80
2022/09/24 10:54:54;;;;;;;6.70;4.55;;;16.70;99.90;;;;;;8226693;28;20541;-80
2022/09/24 10:59:21;;;;;;;5.90;4.60;;;16.80;99.90;;;;;;8228827;28;20019;-80
2022/09/24 11:03:46;;;;;;;5.80;4.85;;;16.60;99.90;;;;;;8219872;28;20057;-80
2022/09/24 11:08:05;;;;;;;7.50;5.10;;;16.20;99.90;;;;;;8228940;28;20038;-80
2022/09/24 11:12:37;;;;;;;7.53;5.32;;;16.00;99.90;;;;;;8229200;28;20023;-80
2022/09/24 11:16:56;;;;;;;;;;;15.60;99.90;;;;;;8229435;28;20034;-81
2022/09/24 11:21:14;;;;;;;7.20;5.28;;;15.70;99.90;;;;;;8228075;28;19914;-81
2022/09/24 11:25:17;;;;;;;5.45;4.95;;;16.30;99.90;;;;;;8224897;28;20177;-80
2022/09/24 11:29:32;;;;;;;5.15;4.55;;;16.60;99.90;;;;;;8227966;28;20023;-81
2022/09/24 11:33:54;;;;;;;5.35;4.30;;;16.60;99.90;;;;;;8228494;28;20109;-79
2022/09/24 11:38:16;;;;;;;5.53;4.10;;;16.50;99.90;;;;;;8229524;28;20025;-80
2022/09/24 11:42:20;;;;;;;6.15;5.40;;;16.20;99.90;;;;;;8227910;28;20030;-80
2022/09/24 11:46:39;;;;;;;4.85;4.32;;;16.10;99.90;;;;;;8227639;28;20022;-80
2022/09/24 11:51:04;;;;;;;8.77;6.70;;;16.10;99.90;;;;;;8228333;28;20056;-80
2022/09/24 11:55:16;;;;;;;5.13;4.63;;;16.10;99.90;;;;;;8228291;28;20027;-80
2022/09/24 11:59:40;;;;;;;5.07;3.55;;;15.90;99.90;;;;;;8227302;28;20076;-80
2022/09/24 12:04:00;;;;;;;4.60;2.88;;;15.90;99.90;;;;;;8225743;28;20502;-80
2022/09/24 12:08:17;;;;;;;2.90;2.38;;;15.90;99.90;;;;;;8227400;28;20023;-80
2022/09/24 12:12:25;;;;;;;3.10;2.75;;;16.10;99.90;;;;;;8222822;28;20030;-81
2022/09/24 12:16:31;;;;;;;4.15;3.20;;;16.00;99.90;;;;;;8228468;28;20030;-81
2022/09/24 12:20:49;;;;;;;5.35;4.10;;;15.70;99.90;;;;;;8228795;28;20023;-81
2022/09/24 12:24:57;;;;;;;4.18;3.72;;;15.70;99.90;;;;;;8227683;28;20097;-80
2022/09/24 12:33:40;;;;;;;4.28;3.15;;;15.60;99.90;;;;;;8224156;28;20090;-81
2022/09/24 12:37:43;;;;;;;4.05;3.35;;;15.80;99.90;;;;;;8226943;28;20029;-81
2022/09/24 12:41:50;;;;;;;4.53;3.60;;;15.80;99.90;;;;;;8226868;28;20023;-81
2022/09/24 12:45:58;;;;;;;5.40;3.83;;;15.80;99.90;;;;;;8225165;28;20027;-81
2022/09/24 12:50:03;;;;;;;5.72;4.10;;;16.10;99.90;;;;;;8306934;22;20498;-82
2022/09/24 12:54:07;;;;;;;6.38;4.60;;;16.20;99.90;;;;;;8287768;28;20044;-82
2022/09/24 12:58:42;;;;;;;4.18;3.20;;;16.00;99.90;;;;;;8288625;28;20019;-81
2022/09/24 13:02:47;;;;;;;5.10;3.88;;;15.70;99.90;;;;;;8281881;28;20038;-83
2022/09/24 13:06:48;;;;;;;4.55;3.35;;;15.40;99.90;;;;;;8288457;28;20021;-82
2022/09/24 13:10:59;;;;;;;4.95;3.78;;;15.40;99.90;;;;;;8268944;28;20027;-82
2022/09/24 13:15:03;;;;;;;;;;;15.30;99.90;;;;;;8296683;28;20685;-82
2022/09/24 13:19:05;;;;;;;3.78;3.10;;;15.10;99.90;;;;;;8298548;28;19909;-82
2022/09/24 13:23:47;;;;;;;4.63;4.10;;;15.00;99.90;;;;;;8282619;28;20483;-82
2022/09/24 13:27:57;;;;;;;4.35;3.75;;;14.80;99.90;;;;;;8281626;28;20116;-83
2022/09/24 13:32:01;;;;;;;3.90;3.33;;;15.00;99.90;;;;;;8289842;28;20035;-82
2022/09/24 13:36:30;;;;;;;35.25;31.27;;;15.00;99.90;;;;;;8290141;28;20072;-82
2022/09/24 13:40:35;;;;;;;4.90;4.35;;;15.30;99.90;;;;;;8288667;28;20022;-82
2022/09/24 13:44:40;;;;;;;5.88;4.50;;;15.50;99.90;;;;;;8291240;28;20025;-82
2022/09/24 13:48:49;;;;;;;3.17;2.50;;;15.70;99.90;;;;;;8277330;28;20459;-83
2022/09/24 13:53:05;;;;;;;2.10;1.90;;;15.90;99.90;;;;;;8277965;28;20417;-82
2022/09/24 13:57:13;;;;;;;1.90;1.30;;;16.30;99.90;;;;;;8277760;28;20072;-82
2022/09/24 14:01:17;;;;;;;3.72;1.60;;;16.50;99.90;;;;;;8272913;28;20034;-83
2022/09/24 14:05:20;;;;;;;5.88;1.52;;;16.80;99.90;;;;;;8294818;28;20030;-82
2022/09/24 14:09:34;;;;;;;1.88;1.48;;;17.10;99.90;;;;;;8289748;28;20606;-84
2022/09/24 14:13:44;;;;;;;4.95;3.05;;;17.50;99.90;;;;;;8279870;28;20632;-83
2022/09/24 14:17:55;;;;;;;1.73;1.40;;;18.20;99.90;;;;;;8275450;28;20262;-83
2022/09/24 14:21:57;;;;;;;1.70;1.58;;;19.30;99.90;;;;;;8280940;28;20034;-83
2022/09/24 14:25:59;;;;;;;1.77;1.50;;;19.70;99.90;;;;;;8279782;28;20042;-83
2022/09/24 14:30:06;;;;;;;1.75;1.23;;;19.80;99.90;;;;;;8265296;28;20034;-84
2022/09/24 14:34:07;;;;;;;2.38;1.75;;;19.70;99.90;;;;;;8289569;28;20030;-83
2022/09/24 14:38:13;;;;;;;2.30;1.70;;;18.80;99.90;;;;;;8280870;28;20018;-83
2022/09/24 14:42:31;;;;;;;1.52;1.40;;;17.90;99.90;;;;;;8279871;28;20077;-83
2022/09/24 14:46:44;;;;;;;2.30;1.73;;;17.10;99.90;;;;;;8289210;28;20122;-83
2022/09/24 14:50:45;;;;;;;3.50;1.98;;;16.70;99.90;;;;;;8266206;28;20062;-83
2022/09/24 14:54:46;;;;;;;2.17;1.60;;;16.40;99.90;;;;;;8294733;28;20072;-83
2022/09/24 14:58:47;;;;;;;2.72;1.65;;;16.40;99.90;;;;;;8277880;28;20023;-82
2022/09/24 15:02:51;;;;;;;2.35;1.73;;;16.20;99.90;;;;;;8265177;28;20032;-81
2022/09/24 15:06:53;;;;;;;3.05;1.50;;;16.60;99.90;;;;;;8277235;28;20394;-81
2022/09/24 15:11:02;;;;;;;2.95;1.38;;;16.90;99.90;;;;;;8272719;28;20033;-80
2022/09/24 15:15:25;;;;;;;1.80;1.20;;;16.80;99.90;;;;;;8273506;28;20015;-81
2022/09/24 15:19:29;;;;;;;1.63;1.20;;;16.60;99.90;;;;;;8274617;28;20042;-81
2022/09/24 15:23:29;;;;;;;1.60;1.20;;;16.60;99.90;;;;;;8274200;28;20054;-81
2022/09/24 15:27:31;;;;;;;2.20;1.20;;;16.60;99.90;;;;;;8264472;28;20041;-83
2022/09/24 15:31:32;;;;;;;1.73;1.17;;;16.50;99.90;;;;;;8284262;28;20038;-83
2022/09/24 15:35:32;;;;;;;2.28;1.45;;;16.20;99.90;;;;;;8273955;28;20031;-83
2022/09/24 15:39:33;;;;;;;1.60;1.30;;;16.00;99.90;;;;;;8278547;28;20030;-83
2022/09/24 15:43:33;;;;;;;1.80;1.67;;;15.60;99.90;;;;;;8279396;28;20042;-83
2022/09/24 15:47:34;;;;;;;2.00;1.80;;;15.40;99.90;;;;;;8280952;28;20100;-83
2022/09/24 15:51:37;;;;;;;2.10;1.67;;;15.30;99.90;;;;;;8269390;28;20037;-83
2022/09/24 15:55:38;;;;;;;2.70;1.83;;;15.30;99.90;;;;;;8271638;28;20025;-83
2022/09/24 15:59:39;;;;;;;2.90;2.08;;;15.20;99.90;;;;;;8281021;28;20022;-83
2022/09/24 16:03:39;;;;;;;2.50;2.10;;;15.30;99.90;;;;;;8282097;28;20490;-83
2022/09/24 16:07:40;;;;;;;3.10;2.08;;;15.20;99.90;;;;;;8271514;28;20500;-84
2022/09/24 16:11:41;;;;;;;2.72;1.90;;;14.80;99.90;;;;;;8260807;28;20043;-83
2022/09/24 16:15:42;;;;;;;12.07;8.65;;;14.50;99.90;;;;;;8282896;28;20085;-83
2022/09/24 16:19:42;;;;;;;7.20;4.70;;;14.30;99.90;;;;;;8281836;28;20022;-83
2022/09/24 16:23:43;;;;;;;8.00;6.72;;;14.20;99.90;;;;;;8269014;28;20025;-83
2022/09/24 16:27:43;;;;;;;3.30;2.67;;;14.20;99.90;;;;;;8272408;28;20027;-83
2022/09/24 16:31:45;;;;;;;4.30;3.35;;;14.10;99.90;;;;;;8285507;28;20478;-83
2022/09/24 16:35:46;;;;;;;4.63;2.80;;;14.20;99.90;;;;;;8271211;28;20017;-84
2022/09/24 16:39:46;;;;;;;5.80;3.15;;;14.20;99.90;;;;;;8279065;28;20084;-84
2022/09/24 16:43:47;;;;;;;3.70;3.10;;;14.20;99.90;;;;;;8271444;28;20023;-83
2022/09/24 16:47:47;;;;;;;4.80;3.17;;;14.00;99.90;;;;;;8277076;28;20076;-83
2022/09/24 16:51:48;;;;;;;12.32;7.05;;;13.70;99.90;;;;;;8271704;28;20054;-83
2022/09/24 16:55:48;;;;;;;9.27;5.82;;;13.50;99.90;;;;;;8293280;28;20033;-83
2022/09/24 16:59:49;;;;;;;14.32;9.23;;;13.40;99.90;;;;;;8281628;28;20022;-83
2022/09/24 17:03:51;;;;;;;16.27;10.73;;;13.20;99.90;;;;;;8276620;28;20169;-83
2022/09/24 17:07:52;;;;;;;13.05;9.70;;;13.20;99.90;;;;;;8263702;28;20022;-84
2022/09/24 17:11:52;;;;;;;9.93;7.32;;;13.00;99.90;;;;;;8285702;28;20883;-83
2022/09/24 17:15:53;;;;;;;5.72;4.47;;;12.90;99.90;;;;;;8277410;28;20410;-83
2022/09/24 17:19:53;;;;;;;6.35;4.47;;;12.80;99.90;;;;;;8285779;28;20406;-79
2022/09/24 17:23:54;;;;;;;5.00;3.92;;;12.90;99.90;;;;;;8269039;28;20113;-79
2022/09/24 17:27:54;;;;;;;5.00;3.47;;;12.50;99.90;;;;;;8285072;28;20375;-79
2022/09/24 17:31:55;;;;;;;5.85;4.47;;;12.10;99.90;;;;;;8267159;28;20026;-79
2022/09/24 17:35:57;;;;;;;8.60;6.43;;;11.90;99.90;;;;;;8267868;28;20022;-80
2022/09/24 17:39:58;;;;;;;7.38;5.53;;;11.70;99.90;;;;;;8275223;28;20033;-79
2022/09/24 17:43:59;;;;;;;15.60;10.30;;;11.50;99.90;;;;;;8275444;28;20108;-79
2022/09/24 17:47:59;;;;;;;11.98;8.63;;;11.40;99.90;;;;;;8274540;28;20034;-78
2022/09/24 17:52:01;;;;;;;11.00;7.57;;;11.40;99.90;;;;;;8281292;28;20064;-79
2022/09/24 17:56:03;;;;;;;10.52;7.28;;;11.40;99.90;;;;;;8274291;28;20018;-79
2022/09/24 18:00:04;;;;;;;13.18;8.32;;;11.40;99.90;;;;;;8276992;28;20018;-78
2022/09/24 18:04:09;;;;;;;13.13;8.45;;;11.20;99.90;;;;;;8286370;28;20499;-78
2022/09/24 18:08:10;;;;;;;10.73;7.63;;;11.00;99.90;;;;;;8266121;28;20030;-78
2022/09/24 18:12:11;;;;;;;10.13;7.35;;;10.90;99.90;;;;;;8289852;28;20069;-78
2022/09/24 18:16:17;;;;;;;9.27;7.10;;;10.80;99.90;;;;;;8271949;28;20165;-78
2022/09/24 18:20:18;;;;;;;11.27;7.30;;;10.80;99.90;;;;;;8267004;28;20054;-79
2022/09/24 18:24:19;;;;;;;8.73;6.53;;;10.70;99.90;;;;;;8275849;28;20050;-78
2022/09/24 18:28:19;;;;;;;7.57;5.93;;;10.60;99.90;;;;;;8280547;28;20386;-78
2022/09/24 18:32:22;;;;;;;8.20;6.30;;;10.50;99.90;;;;;;8267281;28;20026;-78
2022/09/24 18:36:24;;;;;;;8.77;6.38;;;10.40;99.90;;;;;;8283193;28;20138;-79
2022/09/24 18:40:24;;;;;;;9.00;7.00;;;10.30;99.90;;;;;;8284231;28;20018;-78
2022/09/24 18:44:25;;;;;;;10.00;7.97;;;10.40;99.90;;;;;;8276949;28;20501;-77
2022/09/24 18:48:25;;;;;;;10.68;7.70;;;10.40;99.90;;;;;;8287624;22;20129;-79
2022/09/24 18:52:26;;;;;;;15.07;10.10;;;10.40;99.90;;;;;;8263090;28;20077;-79
2022/09/24 18:56:27;;;;;;;9.65;7.78;;;10.30;99.90;;;;;;8262299;28;20098;-79
2022/09/24 19:04:47;;;;;;;8.35;6.60;;;10.20;99.90;;;;;;8241012;28;20060;-79
2022/09/24 19:08:47;;;;;;;9.27;6.10;;;10.20;99.90;;;;;;8237089;28;20023;-79
2022/09/24 19:12:49;;;;;;;8.85;6.63;;;10.20;99.90;;;;;;8228881;28;20034;-79
2022/09/24 19:16:49;;;;;;;12.00;6.55;;;10.20;99.90;;;;;;8246505;28;20270;-79
2022/09/24 19:20:50;;;;;;;7.47;5.55;;;10.20;99.90;;;;;;8229803;28;20035;-79
2022/09/24 19:24:50;;;;;;;7.80;5.32;;;10.30;99.90;;;;;;8229085;28;20019;-79
2022/09/24 19:28:51;;;;;;;7.32;4.93;;;10.40;99.90;;;;;;8244369;28;20022;-79
2022/09/24 19:32:52;;;;;;;6.47;4.40;;;10.40;99.90;;;;;;8227967;28;20030;-79
2022/09/24 19:36:53;;;;;;;5.95;4.28;;;10.30;99.90;;;;;;8231595;28;20026;-79
2022/09/24 19:41:21;;;;;;;5.40;3.70;;;10.10;99.90;;;;;;8238537;28;20019;-79
2022/09/24 19:45:22;;;;;;;5.75;4.53;;;9.80;99.90;;;;;;8238024;28;20019;-79
2022/09/24 19:49:22;;;;;;;7.53;5.28;;;9.60;99.90;;;;;;8227821;28;20062;-79
2022/09/24 19:53:23;;;;;;;9.90;5.97;;;9.60;99.90;;;;;;8228631;28;20513;-78
2022/09/24 19:57:24;;;;;;;8.50;5.85;;;9.60;99.90;;;;;;8235077;28;20019;-78
2022/09/24 20:01:29;;;;;;;8.13;6.20;;;9.60;99.90;;;;;;8254588;28;20030;-78
2022/09/24 20:05:30;;;;;;;8.60;6.43;;;9.50;99.90;;;;;;8246748;28;20045;-79
2022/09/24 20:09:30;;;;;;;11.43;7.00;;;9.40;99.90;;;;;;8233880;28;20030;-79
2022/09/24 20:13:32;;;;;;;14.90;7.50;;;9.30;99.90;;;;;;8239856;28;20049;-79
2022/09/24 20:17:33;;;;;;;14.20;7.28;;;9.20;99.90;;;;;;8231993;28;20089;-79
2022/09/24 20:21:34;;;;;;;25.33;8.13;;;9.30;99.90;;;;;;8228514;28;20557;-79
2022/09/24 20:29:53;;;;;;;14.10;8.45;;;9.30;99.90;;;;;;8228358;28;20030;-78
2022/09/24 20:33:54;;;;;;;13.43;7.45;;;9.30;99.90;;;;;;8227478;28;20400;-78
2022/09/24 20:37:54;;;;;;;12.18;6.90;;;9.20;99.90;;;;;;8232565;28;20080;-79
2022/09/24 20:42:02;;;;;;;11.80;7.25;;;9.20;99.90;;;;;;8234359;28;20150;-78
2022/09/24 20:46:14;;;;;;;12.48;7.95;;;9.20;99.90;;;;;;8258050;28;20110;-79
2022/09/24 20:50:16;;;;;;;12.95;7.45;;;9.30;99.90;;;;;;8228665;28;20187;-79
2022/09/24 20:54:17;;;;;;;16.58;8.50;;;9.30;99.90;;;;;;8227228;28;20068;-79
2022/09/24 20:58:19;;;;;;;11.32;7.55;;;9.30;99.90;;;;;;8228359;28;20015;-79
2022/09/24 21:02:19;;;;;;;15.50;10.02;;;9.30;99.90;;;;;;8250329;28;20041;-78
2022/09/24 21:06:22;;;;;;;18.02;10.10;;;9.40;99.90;;;;;;8247864;28;20027;-79
2022/09/24 21:10:22;;;;;;;14.98;9.82;;;9.30;99.90;;;;;;8227126;28;20023;-79
2022/09/24 21:14:23;;;;;;;20.42;11.52;;;9.30;99.90;;;;;;8242100;28;20073;-79
2022/09/24 21:18:24;;;;;;;16.33;10.27;;;9.30;99.90;;;;;;8226682;28;20027;-79
2022/09/24 21:22:24;;;;;;;12.95;7.80;;;9.40;99.90;;;;;;8237850;28;20054;-78
2022/09/24 21:26:30;;;;;;;8.80;6.10;;;9.30;99.90;;;;;;8250070;28;20026;-81
2022/09/24 21:30:31;;;;;;;11.07;6.63;;;9.20;99.90;;;;;;8263805;28;20410;-78
2022/09/24 21:34:31;;;;;;;9.82;6.78;;;9.30;99.90;;;;;;8246758;28;20109;-79
2022/09/24 21:38:32;;;;;;;7.18;5.93;;;9.30;99.90;;;;;;8238114;28;20066;-78
2022/09/24 21:42:34;;;;;;;10.48;7.07;;;9.30;99.90;;;;;;8238920;28;20026;-79